createdAt,value
2024-05-09T00:00:41.132Z,16.04
2024-05-09T00:03:10.424Z,16.02
2024-05-09T00:05:40.716Z,16.03
2024-05-09T00:08:09.180Z,16.01
2024-05-09T00:10:38.680Z,16.08
2024-05-09T00:13:07.761Z,16.06
2024-05-09T00:15:35.643Z,16.00
2024-05-09T00:18:04.391Z,15.97
2024-05-09T00:20:38.053Z,15.98
2024-05-09T00:23:09.521Z,15.99
2024-05-09T00:25:38.051Z,15.94
2024-05-09T00:28:05.791Z,15.90
2024-05-09T00:30:35.453Z,15.90
2024-05-09T00:33:06.307Z,15.88
2024-05-09T00:35:34.670Z,15.85
2024-05-09T00:38:01.935Z,15.76
2024-05-09T00:40:39.165Z,15.80
2024-05-09T00:43:08.797Z,15.82
2024-05-09T00:45:36.016Z,15.82
2024-05-09T00:48:08.929Z,15.85
2024-05-09T00:50:40.231Z,15.80
2024-05-09T00:53:10.175Z,15.77
2024-05-09T00:55:38.057Z,15.80
2024-05-09T00:58:06.230Z,15.78
2024-05-09T01:00:39.036Z,15.74
2024-05-09T01:03:12.990Z,15.64
2024-05-09T01:05:42.847Z,15.56
2024-05-09T01:08:11.078Z,15.55
2024-05-09T01:10:38.448Z,15.64
2024-05-09T01:13:06.706Z,15.59
2024-05-09T01:15:35.702Z,15.58
2024-05-09T01:18:07.858Z,15.61
2024-05-09T01:20:41.509Z,15.66
2024-05-09T01:23:11.954Z,15.68
2024-05-09T01:25:39.726Z,15.62
2024-05-09T01:28:07.039Z,15.62
2024-05-09T01:30:36.451Z,15.68
2024-05-09T01:33:06.815Z,15.71
2024-05-09T01:35:35.595Z,15.70
2024-05-09T01:38:02.784Z,15.66
2024-05-09T01:40:37.169Z,15.60
2024-05-09T01:43:07.897Z,15.53
2024-05-09T01:45:35.121Z,15.48
2024-05-09T01:48:02.780Z,15.46
2024-05-09T01:50:38.064Z,15.53
2024-05-09T01:53:14.393Z,15.60
2024-05-09T01:55:42.304Z,15.61
2024-05-09T01:58:09.887Z,15.59
2024-05-09T02:00:41.287Z,15.58
2024-05-09T02:03:14.098Z,15.57
2024-05-09T02:05:44.705Z,15.53
2024-05-09T02:08:17.309Z,15.60
2024-05-09T02:10:45.248Z,15.65
2024-05-09T02:13:13.375Z,15.66
2024-05-09T02:15:40.364Z,15.59
2024-05-09T02:18:08.344Z,15.52
2024-05-09T02:20:39.040Z,15.55
2024-05-09T02:23:07.014Z,15.53
2024-05-09T02:25:34.706Z,15.50
2024-05-09T02:28:01.871Z,15.54
2024-05-09T02:30:38.148Z,15.59
2024-05-09T02:33:09.697Z,15.53
2024-05-09T02:35:38.614Z,15.52
2024-05-09T02:38:05.788Z,15.53
2024-05-09T02:40:37.044Z,15.50
2024-05-09T02:43:12.409Z,15.52
2024-05-09T02:45:40.598Z,15.51
2024-05-09T02:48:11.425Z,15.55
2024-05-09T02:50:40.912Z,15.38
2024-05-09T02:53:09.406Z,15.29
2024-05-09T02:55:38.044Z,15.25
2024-05-09T02:58:07.077Z,15.21
2024-05-09T03:00:38.921Z,15.21
2024-05-09T03:03:10.607Z,15.16
2024-05-09T03:05:40.046Z,15.10
2024-05-09T03:08:07.520Z,15.11
2024-05-09T03:10:36.824Z,15.16
2024-05-09T03:13:16.078Z,15.16
2024-05-09T03:15:45.025Z,15.19
2024-05-09T03:18:12.870Z,15.10
2024-05-09T03:20:40.498Z,15.09
2024-05-09T03:23:09.559Z,15.06
2024-05-09T03:25:38.026Z,15.04
2024-05-09T03:28:05.390Z,15.04
2024-05-09T03:30:40.032Z,15.07
2024-05-09T03:33:15.674Z,15.02
2024-05-09T03:35:44.074Z,15.00
2024-05-09T03:38:11.206Z,14.93
2024-05-09T03:40:45.552Z,15.00
2024-05-09T03:43:13.374Z,15.08
2024-05-09T03:45:40.367Z,15.07
2024-05-09T03:48:08.461Z,15.12
2024-05-09T03:50:36.860Z,15.13
2024-05-09T03:53:04.888Z,15.13
2024-05-09T03:55:32.117Z,15.14
2024-05-09T03:57:59.778Z,15.09
2024-05-09T04:00:35.194Z,15.09
2024-05-09T04:03:08.913Z,15.13
2024-05-09T04:05:40.888Z,15.11
2024-05-09T04:08:09.398Z,15.12
2024-05-09T04:10:36.579Z,15.08
2024-05-09T04:13:04.375Z,15.05
2024-05-09T04:15:31.854Z,15.07
2024-05-09T04:18:01.123Z,15.06
2024-05-09T04:20:38.327Z,15.07
2024-05-09T04:23:10.863Z,15.07
2024-05-09T04:25:38.117Z,15.10
2024-05-09T04:28:05.648Z,15.13
2024-05-09T04:30:38.577Z,15.17
2024-05-09T04:33:09.955Z,15.25
2024-05-09T04:35:39.212Z,15.30
2024-05-09T04:38:06.610Z,15.34
2024-05-09T04:40:36.414Z,15.38
2024-05-09T04:43:14.829Z,15.42
2024-05-09T04:45:42.149Z,15.44
2024-05-09T04:48:09.494Z,15.47
2024-05-09T04:50:38.971Z,15.52
2024-05-09T04:53:08.656Z,15.51
2024-05-09T04:55:37.325Z,15.47
2024-05-09T04:58:05.809Z,15.43
2024-05-09T05:00:37.245Z,15.45
2024-05-09T05:03:08.484Z,15.39
2024-05-09T05:05:41.032Z,15.27
2024-05-09T05:08:12.585Z,15.16
2024-05-09T05:10:40.189Z,15.03
2024-05-09T05:13:17.727Z,14.89
2024-05-09T05:15:50.999Z,14.77
2024-05-09T05:18:18.675Z,14.77
2024-05-09T05:20:48.631Z,14.74
2024-05-09T05:23:18.988Z,14.72
2024-05-09T05:25:48.283Z,14.72
2024-05-09T05:28:19.233Z,14.74
2024-05-09T05:30:46.771Z,14.78
2024-05-09T05:33:15.461Z,14.81
2024-05-09T05:35:45.518Z,14.90
2024-05-09T05:38:12.567Z,14.96
2024-05-09T05:40:40.714Z,15.01
2024-05-09T05:43:10.273Z,15.03
2024-05-09T05:45:39.111Z,15.07
2024-05-09T05:48:08.179Z,15.13
2024-05-09T05:50:37.696Z,15.20
2024-05-09T05:53:07.723Z,15.23
2024-05-09T05:55:38.586Z,15.22
2024-05-09T05:58:05.813Z,15.20
2024-05-09T06:00:40.631Z,15.23
2024-05-09T06:03:09.667Z,15.28
2024-05-09T06:05:40.392Z,15.33
2024-05-09T06:08:08.588Z,15.38
2024-05-09T06:10:39.355Z,15.40
2024-05-09T06:13:10.583Z,15.43
2024-05-09T06:15:37.631Z,15.45
2024-05-09T06:18:08.879Z,15.45
2024-05-09T06:20:38.100Z,15.49
2024-05-09T06:23:06.986Z,15.51
2024-05-09T06:25:38.446Z,15.52
2024-05-09T06:28:06.052Z,15.54
2024-05-09T06:33:03.535Z,15.38
2024-05-09T06:35:30.755Z,15.31
2024-05-09T06:37:57.931Z,15.17
2024-05-09T06:40:29.466Z,15.12
2024-05-09T06:43:10.658Z,15.14
2024-05-09T06:45:39.977Z,15.16
2024-05-09T06:48:09.139Z,15.18
2024-05-09T06:50:38.449Z,15.20
2024-05-09T06:53:07.742Z,15.22
2024-05-09T06:55:34.933Z,15.28
2024-05-09T06:58:01.943Z,15.32
2024-05-09T07:00:35.850Z,15.40
2024-05-09T07:03:10.311Z,15.46
2024-05-09T07:05:38.179Z,15.54
2024-05-09T07:08:06.444Z,15.59
2024-05-09T07:10:35.872Z,15.52
2024-05-09T07:13:10.251Z,15.54
2024-05-09T07:15:40.550Z,15.62
2024-05-09T07:18:20.426Z,15.65
2024-05-09T07:20:49.386Z,15.67
2024-05-09T07:23:17.615Z,15.68
2024-05-09T07:25:45.195Z,15.64
2024-05-09T07:28:14.739Z,15.54
2024-05-09T07:30:42.587Z,15.47
2024-05-09T07:33:10.015Z,15.46
2024-05-09T07:35:37.347Z,15.46
2024-05-09T07:38:04.702Z,15.42
2024-05-09T07:40:36.157Z,15.43
2024-05-09T07:43:08.536Z,15.41
2024-05-09T07:53:36.956Z,15.38
2024-05-09T07:55:56.956Z,15.45
2024-05-09T07:58:27.778Z,15.49
2024-05-09T08:00:55.303Z,15.36
2024-05-09T08:03:23.450Z,15.26
2024-05-09T08:05:52.060Z,15.29
2024-05-09T08:08:19.136Z,15.36
2024-05-09T08:10:46.609Z,15.39
2024-05-09T08:13:13.998Z,15.43
2024-05-09T08:15:41.295Z,15.46
2024-05-09T08:18:12.590Z,15.33
2024-05-09T08:20:41.339Z,15.34
2024-05-09T08:23:08.463Z,15.37
2024-05-09T08:25:36.550Z,15.44
2024-05-09T08:28:05.022Z,15.53
2024-05-09T08:30:36.859Z,15.42
2024-05-09T08:33:06.759Z,15.47
2024-05-09T08:35:35.052Z,15.51
2024-05-09T08:38:04.498Z,15.57
2024-05-09T08:40:37.028Z,15.50
2024-05-09T08:43:13.040Z,15.60
2024-05-09T08:45:45.297Z,15.69
2024-05-09T08:48:15.438Z,15.76
2024-05-09T08:50:43.824Z,15.81
2024-05-09T08:53:12.158Z,15.88
2024-05-09T08:55:44.550Z,15.98
2024-05-09T08:58:19.543Z,16.04
2024-05-09T09:00:47.305Z,16.10
2024-05-09T09:03:19.606Z,16.11
2024-05-09T09:05:58.678Z,16.18
2024-05-09T09:08:26.494Z,16.20
2024-05-09T09:10:57.696Z,16.21
2024-05-09T09:13:26.045Z,16.18
2024-05-09T09:15:57.753Z,16.25
2024-05-09T09:18:26.756Z,16.22
2024-05-09T09:20:57.267Z,16.22
2024-05-09T09:23:24.430Z,16.29
2024-05-09T09:25:52.124Z,16.26
2024-05-09T09:28:22.954Z,16.33
2024-05-09T09:30:50.018Z,16.41
2024-05-09T09:33:18.525Z,16.47
2024-05-09T09:35:45.531Z,16.55
2024-05-09T09:38:18.379Z,16.56
2024-05-09T09:40:49.728Z,16.66
2024-05-09T09:43:23.856Z,16.72
2024-05-09T09:45:53.241Z,16.71
2024-05-09T09:48:22.007Z,16.75
2024-05-09T09:50:52.014Z,16.79
2024-05-09T09:53:20.062Z,16.76
2024-05-09T09:55:48.379Z,16.79
2024-05-09T09:58:19.842Z,16.79
2024-05-09T10:00:47.319Z,16.79
2024-05-09T10:03:14.538Z,16.80
2024-05-09T10:05:45.224Z,16.83
2024-05-09T10:08:15.517Z,16.81
2024-05-09T10:10:46.866Z,16.74
2024-05-09T10:13:13.985Z,16.72
2024-05-09T10:15:54.387Z,16.68
2024-05-09T10:18:28.153Z,16.69
2024-05-09T10:21:00.292Z,16.74
2024-05-09T10:23:34.704Z,16.74
2024-05-09T10:26:05.120Z,16.73
2024-05-09T10:28:35.535Z,16.71
2024-05-09T10:31:13.654Z,16.72
2024-05-09T10:33:51.586Z,16.68
2024-05-09T10:36:25.067Z,16.64
2024-05-09T10:38:54.125Z,16.67
2024-05-09T10:41:22.388Z,16.66
2024-05-09T10:43:50.177Z,16.61
2024-05-09T10:46:20.320Z,16.60
2024-05-09T10:48:49.539Z,16.60
2024-05-09T10:51:19.260Z,16.61
2024-05-09T10:53:48.444Z,16.61
2024-05-09T10:56:16.228Z,16.66
2024-05-09T10:58:43.276Z,16.66
2024-05-09T11:01:11.178Z,16.72
2024-05-09T11:03:39.504Z,16.73
2024-05-09T11:06:07.296Z,16.70
2024-05-09T11:08:36.026Z,16.72
2024-05-09T11:11:07.331Z,16.67
2024-05-09T11:13:36.735Z,16.69
2024-05-09T11:16:05.267Z,16.67
2024-05-09T11:18:36.640Z,16.79
2024-05-09T11:21:14.363Z,16.80
2024-05-09T11:23:41.772Z,16.82
2024-05-09T11:26:10.912Z,16.82
2024-05-09T11:28:38.025Z,16.80
2024-05-09T11:31:10.404Z,16.88
2024-05-09T11:33:47.522Z,17.02
2024-05-09T11:36:15.359Z,17.14
2024-05-09T11:38:43.161Z,17.25
2024-05-09T11:41:17.158Z,17.30
2024-05-09T11:43:44.544Z,17.42
2024-05-09T11:46:11.635Z,17.39
2024-05-09T11:48:39.952Z,17.30
2024-05-09T11:51:07.157Z,17.23
2024-05-09T11:53:34.172Z,17.13
2024-05-09T11:56:01.156Z,17.12
2024-05-09T11:58:29.931Z,16.99
2024-05-09T12:00:57.376Z,16.91
2024-05-09T12:03:24.664Z,16.99
2024-05-09T12:05:51.922Z,17.09
2024-05-09T12:08:19.671Z,17.06
2024-05-09T12:10:46.931Z,17.12
2024-05-09T12:13:14.129Z,17.17
2024-05-09T12:15:41.208Z,17.13
2024-05-09T12:18:08.683Z,17.06
2024-05-09T12:20:39.052Z,17.09
2024-05-09T12:23:09.864Z,17.10
2024-05-09T12:25:39.610Z,17.10
2024-05-09T12:28:08.100Z,17.06
2024-05-09T12:30:39.766Z,16.98
2024-05-09T12:33:09.834Z,16.87
2024-05-09T12:35:37.367Z,16.81
2024-05-09T12:38:04.714Z,16.73
2024-05-09T12:40:36.760Z,16.70
2024-05-09T12:43:10.227Z,16.66
2024-05-09T12:45:38.810Z,16.62
2024-05-09T12:48:08.572Z,16.65
2024-05-09T12:50:36.930Z,16.66
2024-05-09T12:53:05.070Z,16.71
2024-05-09T12:55:41.041Z,16.70
2024-05-09T12:58:17.316Z,16.75
2024-05-09T13:00:45.494Z,16.70
2024-05-09T13:03:13.139Z,16.71
2024-05-09T13:05:45.343Z,16.80
2024-05-09T13:08:13.507Z,16.80
2024-05-09T13:10:40.805Z,16.84
2024-05-09T13:13:09.998Z,16.89
2024-05-09T13:15:40.022Z,16.99
2024-05-09T13:18:07.735Z,16.98
2024-05-09T13:20:36.793Z,16.94
2024-05-09T13:23:06.999Z,16.93
2024-05-09T13:25:35.273Z,16.90
2024-05-09T13:28:06.674Z,16.89
2024-05-09T13:30:39.524Z,16.91
2024-05-09T13:33:14.078Z,16.93
2024-05-09T13:35:48.596Z,16.98
2024-05-09T13:38:19.302Z,17.01
2024-05-09T13:40:47.217Z,17.12
2024-05-09T13:43:14.473Z,17.12
2024-05-09T13:45:41.676Z,17.09
2024-05-09T13:48:10.241Z,17.05
2024-05-09T13:50:37.720Z,16.96
2024-05-09T13:53:07.029Z,16.89
2024-05-09T13:55:37.573Z,16.84
2024-05-09T13:58:05.043Z,16.80
2024-05-09T14:00:42.782Z,16.77
2024-05-09T14:03:16.015Z,16.74
2024-05-09T14:05:44.002Z,16.73
2024-05-09T14:08:11.646Z,16.65
2024-05-09T14:10:44.764Z,16.64
2024-05-09T14:13:13.482Z,16.68
2024-05-09T14:15:41.437Z,16.76
2024-05-09T14:18:12.600Z,16.81
2024-05-09T14:20:41.440Z,16.93
2024-05-09T14:23:08.480Z,16.91
2024-05-09T14:25:39.872Z,16.80
2024-05-09T14:28:09.830Z,16.74
2024-05-09T14:30:38.483Z,16.75
2024-05-09T14:33:07.246Z,16.78
2024-05-09T14:35:35.241Z,16.81
2024-05-09T14:38:02.989Z,16.86
2024-05-09T14:40:40.338Z,16.87
2024-05-09T14:43:14.877Z,16.89
2024-05-09T14:45:46.734Z,16.87
2024-05-09T14:48:15.355Z,16.84
2024-05-09T14:50:42.912Z,16.80
2024-05-09T14:53:11.329Z,16.83
2024-05-09T14:55:40.429Z,16.87
2024-05-09T14:58:14.934Z,16.93
2024-05-09T15:00:46.584Z,16.89
2024-05-09T15:03:21.813Z,16.85
2024-05-09T15:05:50.095Z,16.76
2024-05-09T15:08:18.737Z,16.72
2024-05-09T15:10:46.756Z,16.67
2024-05-09T15:13:16.435Z,16.65
2024-05-09T15:15:44.404Z,16.56
2024-05-09T15:18:11.640Z,16.52
2024-05-09T15:20:40.650Z,16.55
2024-05-09T15:23:07.889Z,16.54
2024-05-09T15:25:36.671Z,16.59
2024-05-09T15:28:05.143Z,16.65
2024-05-09T15:30:33.817Z,16.66
2024-05-09T15:33:06.458Z,16.66
2024-05-09T15:35:34.735Z,16.66
2024-05-09T15:38:03.328Z,16.69
2024-05-09T15:40:37.816Z,16.75
2024-05-09T15:43:08.278Z,16.79
2024-05-09T15:45:36.095Z,16.79
2024-05-09T15:48:03.840Z,16.70
2024-05-09T15:50:37.871Z,16.62
2024-05-09T15:53:09.372Z,16.57
2024-05-09T15:55:40.408Z,16.47
2024-05-09T15:58:08.358Z,16.36
2024-05-09T16:00:39.626Z,16.30
2024-05-09T16:03:14.156Z,16.31
2024-05-09T16:05:46.326Z,16.30
2024-05-09T16:08:14.887Z,16.26
2024-05-09T16:10:48.289Z,16.22
2024-05-09T16:13:16.895Z,16.21
2024-05-09T16:15:44.684Z,16.24
2024-05-09T16:18:12.801Z,16.23
2024-05-09T16:20:42.203Z,16.19
2024-05-09T16:23:11.039Z,16.20
2024-05-09T16:25:38.029Z,16.24
2024-05-09T16:28:08.791Z,16.23
2024-05-09T16:30:41.147Z,16.24
2024-05-09T16:33:09.134Z,16.29
2024-05-09T16:35:37.399Z,16.33
2024-05-09T16:38:05.226Z,16.37
2024-05-09T16:40:38.083Z,16.35
2024-05-09T16:43:11.577Z,16.28
2024-05-09T16:45:44.726Z,16.27
2024-05-09T16:48:13.437Z,16.27
2024-05-09T16:50:40.474Z,16.24
2024-05-09T16:53:07.703Z,16.23
2024-05-09T16:55:36.010Z,16.23
2024-05-09T16:58:04.790Z,16.20
2024-05-09T17:00:40.007Z,16.14
2024-05-09T17:03:12.759Z,16.09
2024-05-09T17:05:41.302Z,16.08
2024-05-09T17:08:08.981Z,16.07
2024-05-09T17:10:36.846Z,16.06
2024-05-09T17:13:06.365Z,16.08
2024-05-09T17:15:34.976Z,16.08
2024-05-09T17:18:02.726Z,16.07
2024-05-09T17:20:34.232Z,16.07
2024-05-09T17:23:05.723Z,16.07
2024-05-09T17:25:33.941Z,16.05
2024-05-09T17:28:08.254Z,16.03
2024-05-09T17:30:38.418Z,16.03
2024-05-09T17:33:09.428Z,16.05
2024-05-09T17:35:37.642Z,16.03
2024-05-09T17:38:08.332Z,16.03
2024-05-09T17:40:37.471Z,16.01
2024-05-09T17:43:08.356Z,16.02
2024-05-09T17:45:38.862Z,15.97
2024-05-09T17:48:07.250Z,15.91
2024-05-09T17:50:36.634Z,15.89
2024-05-09T17:53:08.446Z,15.94
2024-05-09T17:55:36.022Z,15.96
2024-05-09T17:58:04.393Z,15.98
2024-05-09T18:00:38.453Z,15.99
2024-05-09T18:03:11.844Z,15.99
2024-05-09T18:05:40.399Z,15.99
2024-05-09T18:08:08.384Z,15.99
2024-05-09T18:10:38.676Z,15.98
2024-05-09T18:13:08.710Z,15.99
2024-05-09T18:15:36.430Z,15.99
2024-05-09T18:18:04.176Z,15.97
2024-05-09T18:20:40.372Z,15.96
2024-05-09T18:23:11.702Z,15.95
2024-05-09T18:25:38.702Z,15.94
2024-05-09T18:28:06.871Z,15.92
2024-05-09T18:30:36.412Z,15.91
2024-05-09T18:33:06.635Z,15.93
2024-05-09T18:35:35.229Z,15.95
2024-05-09T18:38:02.858Z,15.94
2024-05-09T18:40:34.460Z,15.94
2024-05-09T18:43:05.834Z,15.94
2024-05-09T18:45:34.330Z,15.94
2024-05-09T18:48:01.556Z,15.94
2024-05-09T18:50:35.075Z,15.93
2024-05-09T18:53:12.972Z,15.91
2024-05-09T18:55:41.987Z,15.87
2024-05-09T18:58:09.257Z,15.85
2024-05-09T19:00:39.109Z,15.82
2024-05-09T19:03:11.223Z,15.80
2024-05-09T19:05:40.982Z,15.78
2024-05-09T19:08:09.126Z,15.78
2024-05-09T19:10:38.541Z,15.77
2024-05-09T19:13:11.562Z,15.76
2024-05-09T19:15:41.002Z,15.76
2024-05-09T19:18:08.681Z,15.74
2024-05-09T19:20:36.893Z,15.74
2024-05-09T19:23:06.668Z,15.73
2024-05-09T19:25:34.799Z,15.72
2024-05-09T19:28:02.364Z,15.72
2024-05-09T19:30:37.865Z,15.71
2024-05-09T19:33:09.085Z,15.70
2024-05-09T19:35:37.072Z,15.68
2024-05-09T19:38:05.243Z,15.68
2024-05-09T19:40:34.100Z,15.66
2024-05-09T19:43:03.166Z,15.67
2024-05-09T19:45:32.542Z,15.67
2024-05-09T19:48:00.103Z,15.67
2024-05-09T19:50:36.652Z,15.68
2024-05-09T19:53:09.423Z,15.67
2024-05-09T19:55:36.875Z,15.66
2024-05-09T19:58:05.601Z,15.65
2024-05-09T20:00:40.287Z,15.63
2024-05-09T20:03:10.091Z,15.62
2024-05-09T20:05:37.947Z,15.60
2024-05-09T20:08:06.103Z,15.59
2024-05-09T20:10:35.420Z,15.59
2024-05-09T20:13:05.028Z,15.56
2024-05-09T20:15:34.948Z,15.53
2024-05-09T20:18:02.713Z,15.52
2024-05-09T20:20:37.316Z,15.50
2024-05-09T20:23:08.791Z,15.48
2024-05-09T20:25:35.853Z,15.45
2024-05-09T20:28:03.179Z,15.45
2024-05-09T20:30:32.944Z,15.45
2024-05-09T20:33:07.103Z,15.43
2024-05-09T20:35:35.637Z,15.41
2024-05-09T20:38:03.472Z,15.41
2024-05-09T20:40:35.414Z,15.40
2024-05-09T20:43:06.586Z,15.39
2024-05-09T20:45:34.428Z,15.37
2024-05-09T20:48:01.881Z,15.34
2024-05-09T20:50:36.925Z,15.32
2024-05-09T20:53:13.003Z,15.31
2024-05-09T20:55:41.373Z,15.30
2024-05-09T20:58:09.613Z,15.27
2024-05-09T21:00:42.863Z,15.25
2024-05-09T21:03:13.483Z,15.22
2024-05-09T21:05:41.776Z,15.21
2024-05-09T21:08:09.284Z,15.18
2024-05-09T21:10:37.102Z,15.16
2024-05-09T21:13:06.105Z,15.13
2024-05-09T21:15:34.076Z,15.12
2024-05-09T21:18:01.296Z,15.14
2024-05-09T21:20:31.403Z,15.14
2024-05-09T21:23:00.251Z,15.13
2024-05-09T21:25:27.449Z,15.16
2024-05-09T21:27:54.537Z,15.15
2024-05-09T21:30:31.986Z,15.16
2024-05-09T21:33:08.269Z,15.18
2024-05-09T21:35:35.579Z,15.14
2024-05-09T21:38:03.522Z,15.14
2024-05-09T21:40:34.512Z,15.16
2024-05-09T21:43:04.038Z,15.18
2024-05-09T21:45:31.197Z,15.18
2024-05-09T21:47:58.348Z,15.18
2024-05-09T21:50:32.375Z,15.20
2024-05-09T21:53:06.566Z,15.21
2024-05-09T21:55:33.850Z,15.21
2024-05-09T21:58:01.066Z,15.22
2024-05-09T22:00:35.615Z,15.22
2024-05-09T22:03:06.154Z,15.23
2024-05-09T22:05:33.670Z,15.23
2024-05-09T22:08:01.140Z,15.23
2024-05-09T22:10:34.056Z,15.22
2024-05-09T22:13:03.535Z,15.23
2024-05-09T22:15:33.787Z,15.23
2024-05-09T22:18:01.003Z,15.23
2024-05-09T22:20:34.506Z,15.23
2024-05-09T22:23:05.402Z,15.22
2024-05-09T22:25:32.967Z,15.20
2024-05-09T22:28:01.480Z,15.19
2024-05-09T22:30:35.788Z,15.20
2024-05-09T22:33:07.080Z,15.19
2024-05-09T22:35:34.470Z,15.18
2024-05-09T22:38:03.373Z,15.17
2024-05-09T22:40:39.113Z,15.17
2024-05-09T22:43:16.624Z,15.16
2024-05-09T22:45:43.920Z,15.17
2024-05-09T22:48:11.053Z,15.16
2024-05-09T22:50:38.106Z,15.14
2024-05-09T22:53:05.752Z,15.11
2024-05-09T22:55:32.979Z,15.09
2024-05-09T22:58:00.065Z,15.06
2024-05-09T23:00:31.660Z,15.05
2024-05-09T23:03:01.145Z,15.05
2024-05-09T23:05:28.692Z,15.04
2024-05-09T23:07:55.841Z,15.02
2024-05-09T23:10:31.064Z,15.00
2024-05-09T23:13:02.899Z,14.99
2024-05-09T23:15:30.161Z,14.99
2024-05-09T23:17:57.976Z,14.99
2024-05-09T23:20:33.918Z,14.98
2024-05-09T23:23:09.790Z,14.96
2024-05-09T23:25:38.095Z,14.95
2024-05-09T23:28:05.577Z,14.92
2024-05-09T23:30:37.740Z,14.93
2024-05-09T23:33:08.516Z,14.93
2024-05-09T23:35:35.797Z,14.91
2024-05-09T23:38:05.581Z,14.90
2024-05-09T23:43:03.100Z,14.90
2024-05-09T23:45:30.108Z,14.90
2024-05-09T23:47:57.397Z,14.90
2024-05-09T23:50:33.072Z,14.90
2024-05-09T23:53:03.446Z,14.91
2024-05-09T23:55:31.539Z,14.90
2024-05-09T23:57:58.785Z,14.87
